createdAt,value
2018-10-17T00:01:39.497Z,15.90
2018-10-17T00:04:07.665Z,15.60
2018-10-17T00:06:37.532Z,15.00
2018-10-17T00:09:07.072Z,14.83
2018-10-17T00:11:35.161Z,14.47
2018-10-17T00:14:03.332Z,16.87
2018-10-17T00:16:31.428Z,13.63
2018-10-17T00:18:59.617Z,19.97
2018-10-17T00:21:27.860Z,14.30
2018-10-17T00:23:55.945Z,15.73
2018-10-17T00:26:24.032Z,16.33
2018-10-17T00:28:52.211Z,15.73
2018-10-17T00:31:20.485Z,15.30
2018-10-17T00:33:48.612Z,15.43
2018-10-17T00:36:16.713Z,14.00
2018-10-17T00:38:44.793Z,15.53
2018-10-17T00:41:12.920Z,15.07
2018-10-17T00:43:41.139Z,15.17
2018-10-17T00:46:09.748Z,14.57
2018-10-17T00:48:37.805Z,14.27
2018-10-17T00:51:06.256Z,15.70
2018-10-17T00:53:34.376Z,14.87
2018-10-17T00:56:02.508Z,14.33
2018-10-17T00:58:30.797Z,16.17
2018-10-17T01:00:58.941Z,14.93
2018-10-17T01:03:27.252Z,15.93
2018-10-17T01:05:55.477Z,15.97
2018-10-17T01:08:23.546Z,15.63
2018-10-17T01:10:51.630Z,14.70
2018-10-17T01:13:20.042Z,15.93
2018-10-17T01:15:48.277Z,15.27
2018-10-17T01:18:16.409Z,16.77
2018-10-17T01:20:44.508Z,17.03
2018-10-17T01:23:12.686Z,14.57
2018-10-17T01:25:40.937Z,15.33
2018-10-17T01:28:09.417Z,13.40
2018-10-17T01:30:37.516Z,15.23
2018-10-17T01:33:05.603Z,19.63
2018-10-17T01:35:33.645Z,15.63
2018-10-17T01:38:01.728Z,18.60
2018-10-17T01:40:29.911Z,15.67
2018-10-17T01:42:58.060Z,14.97
2018-10-17T01:45:26.361Z,16.13
2018-10-17T01:47:54.521Z,18.10
2018-10-17T01:50:22.577Z,16.10
2018-10-17T01:52:50.658Z,16.57
2018-10-17T01:55:19.019Z,18.80
2018-10-17T01:57:47.064Z,14.50
2018-10-17T02:00:15.249Z,17.70
2018-10-17T02:02:43.317Z,22.57
2018-10-17T02:05:11.559Z,17.60
2018-10-17T02:07:39.755Z,18.27
2018-10-17T02:10:07.878Z,20.00
2018-10-17T02:12:35.944Z,19.93
2018-10-17T02:15:04.054Z,17.07
2018-10-17T02:17:32.120Z,17.40
2018-10-17T02:20:00.203Z,16.23
2018-10-17T02:22:28.956Z,18.23
2018-10-17T02:24:57.043Z,16.30
2018-10-17T02:27:25.309Z,17.50
2018-10-17T02:29:53.424Z,18.27
2018-10-17T02:32:21.688Z,19.70
2018-10-17T02:34:55.329Z,20.33
2018-10-17T02:37:23.570Z,18.57
2018-10-17T02:39:51.741Z,17.50
2018-10-17T02:42:19.821Z,15.23
2018-10-17T02:44:47.879Z,15.83
2018-10-17T02:47:16.005Z,16.17
2018-10-17T02:49:44.253Z,16.50
2018-10-17T02:52:12.310Z,16.67
2018-10-17T02:54:40.392Z,16.70
2018-10-17T02:57:08.441Z,17.40
2018-10-17T02:59:36.530Z,17.57
2018-10-17T03:02:05.020Z,19.10
2018-10-17T03:04:33.277Z,18.63
2018-10-17T03:07:01.405Z,17.90
2018-10-17T03:09:29.629Z,16.60
2018-10-17T03:11:57.789Z,20.53
2018-10-17T03:14:25.994Z,15.43
2018-10-17T03:16:54.132Z,18.13
2018-10-17T03:19:22.458Z,21.70
2018-10-17T03:21:50.739Z,22.23
2018-10-17T03:24:18.861Z,20.60
2018-10-17T03:26:46.946Z,17.70
2018-10-17T03:29:15.124Z,16.93
2018-10-17T03:31:43.345Z,21.70
2018-10-17T03:34:11.496Z,19.10
2018-10-17T03:36:39.556Z,18.53
2018-10-17T03:39:08.833Z,17.17
2018-10-17T03:41:37.034Z,17.20
2018-10-17T03:44:05.301Z,16.17
2018-10-17T03:46:33.443Z,18.63
2018-10-17T03:49:01.614Z,18.27
2018-10-17T03:51:29.829Z,19.00
2018-10-17T03:53:58.314Z,16.90
2018-10-17T03:56:26.396Z,20.97
2018-10-17T03:58:54.552Z,18.47
2018-10-17T04:01:22.764Z,18.97
2018-10-17T04:03:50.894Z,16.73
2018-10-17T04:06:19.278Z,17.90
2018-10-17T04:08:47.358Z,21.13
2018-10-17T04:11:15.463Z,16.53
2018-10-17T04:13:43.728Z,18.40
2018-10-17T04:16:11.920Z,18.37
2018-10-17T04:18:40.356Z,18.43
2018-10-17T04:21:08.486Z,20.93
2018-10-17T04:23:36.866Z,17.00
2018-10-17T04:26:05.014Z,18.43
2018-10-17T04:28:33.074Z,16.27
2018-10-17T04:31:01.167Z,17.13
2018-10-17T04:33:29.426Z,20.30
2018-10-17T04:35:57.553Z,18.30
2018-10-17T04:38:25.854Z,20.40
2018-10-17T04:40:54.109Z,17.47
2018-10-17T04:43:22.329Z,17.40
2018-10-17T04:45:50.401Z,20.70
2018-10-17T04:48:19.217Z,17.90
2018-10-17T04:50:47.349Z,20.13
2018-10-17T04:53:15.733Z,22.70
2018-10-17T04:55:44.888Z,18.90
2018-10-17T04:58:14.227Z,19.03
2018-10-17T05:00:43.030Z,19.73
2018-10-17T05:03:12.026Z,18.20
2018-10-17T05:05:40.993Z,20.70
2018-10-17T05:08:10.106Z,23.20
2018-10-17T05:10:39.124Z,23.07
2018-10-17T05:13:07.444Z,24.63
2018-10-17T05:15:35.655Z,20.27
2018-10-17T05:18:03.725Z,23.53
2018-10-17T05:20:31.772Z,25.13
2018-10-17T05:22:59.859Z,21.60
2018-10-17T05:25:28.160Z,32.67
2018-10-17T05:27:56.276Z,25.70
2018-10-17T05:30:24.765Z,21.17
2018-10-17T05:32:52.917Z,23.93
2018-10-17T05:35:20.985Z,22.57
2018-10-17T05:37:49.274Z,22.87
2018-10-17T05:40:17.461Z,25.17
2018-10-17T05:42:45.548Z,27.43
2018-10-17T05:45:13.610Z,22.67
2018-10-17T05:47:41.693Z,21.10
2018-10-17T05:50:09.753Z,24.63
2018-10-17T05:52:37.823Z,19.00
2018-10-17T05:55:06.422Z,23.43
2018-10-17T05:57:34.642Z,18.73
2018-10-17T06:00:02.712Z,19.77
2018-10-17T06:02:33.139Z,18.40
2018-10-17T06:05:01.607Z,16.87
2018-10-17T06:07:29.914Z,18.93
2018-10-17T06:09:58.009Z,17.47
2018-10-17T06:12:26.093Z,20.60
2018-10-17T06:14:54.364Z,17.90
2018-10-17T06:17:22.487Z,17.67
2018-10-17T06:19:50.997Z,20.57
2018-10-17T06:22:19.082Z,22.70
2018-10-17T06:24:47.164Z,22.20
2018-10-17T06:27:15.265Z,19.73
2018-10-17T06:29:43.327Z,25.20
2018-10-17T06:32:11.393Z,20.10
2018-10-17T06:34:39.496Z,18.90
2018-10-17T06:37:08.074Z,19.43
2018-10-17T06:39:36.312Z,20.37
2018-10-17T06:42:05.093Z,21.33
2018-10-17T06:44:33.304Z,18.43
2018-10-17T06:47:01.561Z,19.17
2018-10-17T06:49:29.720Z,21.47
2018-10-17T06:51:57.820Z,21.13
2018-10-17T06:54:26.121Z,21.20
2018-10-17T06:56:54.434Z,20.50
2018-10-17T06:59:22.526Z,23.77
2018-10-17T07:01:50.814Z,25.80
2018-10-17T07:04:18.977Z,23.50
2018-10-17T07:06:47.038Z,30.70
2018-10-17T07:09:15.147Z,36.00
2018-10-17T07:11:43.413Z,28.57
2018-10-17T07:14:11.692Z,31.83
2018-10-17T07:16:39.781Z,22.50
2018-10-17T07:19:07.936Z,22.23
2018-10-17T07:21:36.221Z,26.97
2018-10-17T07:24:04.405Z,25.40
2018-10-17T07:26:32.664Z,23.50
2018-10-17T07:29:00.909Z,29.20
2018-10-17T07:31:29.213Z,23.80
2018-10-17T07:33:57.398Z,24.07
2018-10-17T07:36:25.447Z,24.53
2018-10-17T07:38:53.529Z,22.37
2018-10-17T07:41:21.661Z,21.90
2018-10-17T07:43:49.720Z,29.17
2018-10-17T07:46:17.909Z,29.80
2018-10-17T07:48:46.174Z,25.70
2018-10-17T07:51:14.449Z,29.43
2018-10-17T07:53:42.520Z,27.47
2018-10-17T07:56:10.591Z,29.07
2018-10-17T07:58:38.813Z,24.53
2018-10-17T08:01:06.920Z,22.17
2018-10-17T08:03:34.984Z,31.27
2018-10-17T08:06:03.091Z,25.70
2018-10-17T08:08:31.312Z,26.40
2018-10-17T08:10:59.401Z,23.27
2018-10-17T08:13:27.676Z,27.97
2018-10-17T08:15:56.182Z,22.57
2018-10-17T08:18:24.262Z,23.23
2018-10-17T08:20:52.323Z,24.80
2018-10-17T08:23:20.788Z,25.00
2018-10-17T08:25:48.874Z,30.93
2018-10-17T08:28:16.957Z,25.47
2018-10-17T08:30:45.025Z,27.20
2018-10-17T08:33:13.094Z,24.90
2018-10-17T08:35:41.245Z,25.57
2018-10-17T08:38:09.482Z,23.40
2018-10-17T08:40:37.844Z,28.80
2018-10-17T08:43:05.895Z,26.50
2018-10-17T08:45:34.084Z,29.27
2018-10-17T08:48:02.225Z,29.10
2018-10-17T08:50:30.517Z,28.53
2018-10-17T08:52:58.893Z,27.30
2018-10-17T08:55:26.988Z,24.07
2018-10-17T08:57:55.103Z,23.20
2018-10-17T09:00:23.712Z,29.37
2018-10-17T09:02:51.954Z,25.10
2018-10-17T09:05:20.110Z,26.90
2018-10-17T09:07:48.275Z,24.83
2018-10-17T09:10:16.728Z,23.40
2018-10-17T09:12:44.824Z,22.80
2018-10-17T09:15:12.880Z,29.63
2018-10-17T09:17:40.997Z,25.37
2018-10-17T09:20:09.828Z,24.20
2018-10-17T09:22:37.869Z,24.97
2018-10-17T09:25:06.747Z,25.37
2018-10-17T09:27:35.178Z,23.37
2018-10-17T09:30:03.471Z,27.47
2018-10-17T09:32:31.661Z,26.40
2018-10-17T09:34:59.883Z,23.00
2018-10-17T09:37:28.088Z,26.10
2018-10-17T09:39:56.276Z,29.10
2018-10-17T09:42:24.552Z,25.43
2018-10-17T09:44:52.597Z,24.20
2018-10-17T09:47:20.748Z,30.70
2018-10-17T09:49:48.928Z,30.13
2018-10-17T09:52:17.316Z,28.80
2018-10-17T09:54:45.634Z,29.50
2018-10-17T09:57:13.701Z,22.30
2018-10-17T09:59:41.880Z,22.43
2018-10-17T10:02:10.369Z,27.07
2018-10-17T10:04:38.581Z,20.73
2018-10-17T10:07:06.680Z,19.63
2018-10-17T10:09:34.820Z,22.13
2018-10-17T10:12:02.931Z,23.70
2018-10-17T10:14:31.643Z,18.33
2018-10-17T10:16:59.771Z,17.30
2018-10-17T10:19:28.059Z,18.43
2018-10-17T10:21:56.149Z,18.33
2018-10-17T10:24:24.385Z,18.40
2018-10-17T10:26:52.529Z,17.10
2018-10-17T10:29:20.607Z,18.43
2018-10-17T10:31:48.673Z,23.07
2018-10-17T10:34:16.868Z,15.87
2018-10-17T10:36:45.076Z,14.63
2018-10-17T10:39:13.421Z,15.60
2018-10-17T10:41:41.881Z,19.67
2018-10-17T10:44:10.083Z,13.87
2018-10-17T10:46:38.274Z,15.00
2018-10-17T10:49:06.569Z,15.73
2018-10-17T10:51:34.885Z,14.07
2018-10-17T10:54:03.116Z,15.00
2018-10-17T10:56:31.352Z,17.83
2018-10-17T10:58:59.493Z,13.70
2018-10-17T11:01:28.001Z,16.50
2018-10-17T11:03:56.072Z,19.83
2018-10-17T11:06:24.148Z,15.93
2018-10-17T11:08:52.264Z,15.00
2018-10-17T11:11:20.827Z,13.63
2018-10-17T11:13:49.113Z,13.47
2018-10-17T11:16:17.386Z,13.27
2018-10-17T11:18:45.473Z,14.37
2018-10-17T11:21:13.640Z,14.50
2018-10-17T11:23:41.898Z,12.47
2018-10-17T11:26:10.009Z,16.17
2018-10-17T11:28:38.116Z,11.20
2018-10-17T11:31:06.256Z,17.67
2018-10-17T11:33:34.337Z,13.50
2018-10-17T11:36:02.496Z,11.90
2018-10-17T11:38:30.620Z,9.73
2018-10-17T11:40:59.123Z,11.50
2018-10-17T11:43:27.393Z,11.10
2018-10-17T11:45:55.464Z,11.10
2018-10-17T11:48:23.557Z,13.10
2018-10-17T11:50:52.741Z,14.90
2018-10-17T11:53:21.218Z,10.93
2018-10-17T11:55:49.305Z,14.47
2018-10-17T11:58:17.477Z,11.87
2018-10-17T12:00:45.533Z,12.33
2018-10-17T12:03:13.747Z,13.17
2018-10-17T12:05:41.939Z,11.33
2018-10-17T12:08:10.145Z,15.80
2018-10-17T12:10:38.189Z,17.13
2018-10-17T12:13:06.245Z,13.60
2018-10-17T12:15:34.297Z,12.23
2018-10-17T12:18:02.454Z,17.63
2018-10-17T12:20:30.650Z,14.97
2018-10-17T12:22:58.785Z,11.57
2018-10-17T12:25:26.853Z,12.07
2018-10-17T12:27:54.969Z,12.00
2018-10-17T12:30:23.222Z,11.47
2018-10-17T12:32:51.306Z,11.37
2018-10-17T12:35:19.578Z,11.20
2018-10-17T12:37:47.779Z,9.37
2018-10-17T12:40:15.967Z,9.20
2018-10-17T12:42:44.133Z,8.83
2018-10-17T12:45:12.739Z,9.07
2018-10-17T12:47:41.017Z,8.33
2018-10-17T12:50:09.431Z,8.50
2018-10-17T12:52:37.735Z,8.17
2018-10-17T12:55:06.268Z,8.57
2018-10-17T12:57:34.460Z,14.70
2018-10-17T13:00:02.528Z,8.27
2018-10-17T13:02:31.027Z,8.37
2018-10-17T13:04:59.186Z,9.10
2018-10-17T13:07:27.442Z,8.27
2018-10-17T13:09:55.526Z,9.00
2018-10-17T13:12:23.711Z,11.43
2018-10-17T13:14:51.860Z,10.43
2018-10-17T13:17:20.107Z,10.63
2018-10-17T13:19:48.271Z,12.73
2018-10-17T13:22:16.562Z,10.53
2018-10-17T13:24:44.671Z,10.40
2018-10-17T13:27:12.904Z,12.87
2018-10-17T13:29:40.948Z,10.80
2018-10-17T13:32:09.024Z,9.43
2018-10-17T13:34:37.420Z,9.40
2018-10-17T13:37:05.674Z,9.70
2018-10-17T13:39:33.853Z,9.10
2018-10-17T13:42:02.030Z,8.80
2018-10-17T13:44:30.246Z,10.20
2018-10-17T13:46:58.350Z,12.90
2018-10-17T13:49:26.647Z,8.50
2018-10-17T13:51:54.911Z,8.00
2018-10-17T13:54:23.100Z,13.63
2018-10-17T13:56:51.210Z,7.53
2018-10-17T13:59:19.593Z,7.70
2018-10-17T14:01:47.862Z,15.57
2018-10-17T14:04:16.082Z,7.70
2018-10-17T14:06:44.259Z,9.10
2018-10-17T14:09:12.432Z,7.90
2018-10-17T14:11:40.709Z,7.80
2018-10-17T14:14:09.966Z,8.10
2018-10-17T14:16:38.012Z,7.50
2018-10-17T14:19:06.125Z,8.33
2018-10-17T14:21:34.214Z,9.50
2018-10-17T14:24:02.382Z,9.77
2018-10-17T14:26:30.747Z,10.27
2018-10-17T14:28:58.796Z,9.30
2018-10-17T14:31:26.877Z,8.23
2018-10-17T14:33:54.978Z,8.90
2018-10-17T14:36:23.156Z,12.00
2018-10-17T14:38:51.360Z,7.50
2018-10-17T14:41:19.765Z,10.00
2018-10-17T14:43:48.099Z,11.67
2018-10-17T14:46:16.447Z,7.50
2018-10-17T14:48:44.641Z,8.63
2018-10-17T14:51:12.808Z,10.70
2018-10-17T14:53:41.003Z,8.80
2018-10-17T14:56:09.083Z,8.10
2018-10-17T14:58:37.350Z,7.53
2018-10-17T15:01:05.434Z,7.90
2018-10-17T15:03:33.581Z,8.77
2018-10-17T15:06:01.660Z,7.73
2018-10-17T15:08:29.771Z,9.03
2018-10-17T15:10:58.060Z,8.90
2018-10-17T15:13:26.166Z,8.23
2018-10-17T15:15:54.288Z,8.27
2018-10-17T15:18:22.364Z,9.10
2018-10-17T15:20:50.532Z,8.70
2018-10-17T15:23:18.691Z,9.40
2018-10-17T15:25:46.810Z,11.17
2018-10-17T15:28:15.072Z,9.27
2018-10-17T15:30:43.514Z,9.80
2018-10-17T15:33:11.590Z,14.20
2018-10-17T15:35:39.877Z,14.60
2018-10-17T15:38:07.982Z,10.60
2018-10-17T15:40:36.062Z,9.17
2018-10-17T15:43:04.503Z,9.60
2018-10-17T15:45:32.762Z,11.17
2018-10-17T15:48:01.218Z,12.70
2018-10-17T15:50:29.629Z,9.83
2018-10-17T15:52:57.874Z,13.07
2018-10-17T15:55:26.117Z,9.67
2018-10-17T15:57:54.346Z,10.63
2018-10-17T16:00:22.476Z,12.77
2018-10-17T16:02:50.570Z,10.93
2018-10-17T16:05:18.685Z,11.27
2018-10-17T16:07:46.893Z,15.20
2018-10-17T16:10:14.991Z,11.90
2018-10-17T16:12:43.064Z,13.13
2018-10-17T16:15:11.254Z,15.13
2018-10-17T16:17:39.694Z,12.03
2018-10-17T16:20:09.438Z,18.40
2018-10-17T16:22:37.706Z,12.27
2018-10-17T16:25:06.378Z,16.93
2018-10-17T16:27:34.507Z,13.33
2018-10-17T16:30:02.780Z,14.40
2018-10-17T16:32:31.030Z,14.80
2018-10-17T16:34:59.159Z,11.10
2018-10-17T16:37:27.238Z,13.00
2018-10-17T16:39:55.342Z,18.60
2018-10-17T16:42:23.437Z,13.67
2018-10-17T16:44:51.544Z,11.73
2018-10-17T16:47:19.813Z,15.73
2018-10-17T16:49:47.962Z,12.30
2018-10-17T16:52:16.205Z,15.57
2018-10-17T16:54:44.282Z,13.13
2018-10-17T16:57:12.574Z,13.50
2018-10-17T16:59:40.827Z,18.17
2018-10-17T17:02:09.205Z,21.17
2018-10-17T17:04:37.418Z,24.13
2018-10-17T17:07:05.751Z,17.00
2018-10-17T17:09:33.982Z,15.53
2018-10-17T17:12:02.241Z,14.17
2018-10-17T17:14:30.440Z,12.80
2018-10-17T17:16:58.748Z,13.90
2018-10-17T17:19:26.852Z,12.37
2018-10-17T17:21:54.933Z,18.27
2018-10-17T17:24:23.052Z,16.90
2018-10-17T17:26:51.235Z,15.13
2018-10-17T17:29:19.545Z,15.57
2018-10-17T17:31:47.815Z,15.50
2018-10-17T17:34:15.943Z,12.57
2018-10-17T17:36:44.069Z,14.20
2018-10-17T17:39:12.167Z,18.70
2018-10-17T17:41:40.306Z,12.77
2018-10-17T17:44:08.443Z,13.80
2018-10-17T17:46:36.674Z,14.07
2018-10-17T17:49:05.341Z,13.87
2018-10-17T17:51:33.460Z,19.60
2018-10-17T17:54:01.585Z,23.47
2018-10-17T17:56:29.683Z,14.53
2018-10-17T17:58:57.921Z,14.50
2018-10-17T18:01:26.048Z,20.60
2018-10-17T18:03:54.217Z,13.13
2018-10-17T18:06:22.745Z,13.50
2018-10-17T18:08:50.979Z,15.30
2018-10-17T18:11:20.593Z,14.13
2018-10-17T18:13:48.953Z,14.63
2018-10-17T18:16:17.053Z,17.53
2018-10-17T18:18:45.322Z,15.43
2018-10-17T18:21:13.794Z,15.73
2018-10-17T18:23:42.193Z,17.53
2018-10-17T18:26:10.682Z,19.13
2018-10-17T18:28:38.977Z,14.23
2018-10-17T18:31:07.216Z,17.53
2018-10-17T18:33:35.350Z,16.27
2018-10-17T18:36:03.498Z,15.90
2018-10-17T18:38:31.723Z,16.70
2018-10-17T18:40:59.851Z,17.20
2018-10-17T18:43:28.304Z,18.43
2018-10-17T18:45:56.579Z,22.80
2018-10-17T18:48:25.085Z,27.90
2018-10-17T18:50:53.423Z,28.30
2018-10-17T18:53:21.733Z,23.23
2018-10-17T18:55:49.966Z,24.00
2018-10-17T18:58:18.258Z,32.77
2018-10-17T19:00:46.597Z,19.30
2018-10-17T19:03:14.795Z,17.67
2018-10-17T19:05:43.025Z,17.53
2018-10-17T19:08:11.269Z,21.40
2018-10-17T19:10:39.549Z,22.57
2018-10-17T19:13:07.785Z,19.30
2018-10-17T19:15:35.989Z,19.43
2018-10-17T19:18:04.133Z,19.63
2018-10-17T19:20:32.261Z,15.93
2018-10-17T19:23:00.565Z,16.33
2018-10-17T19:25:28.710Z,16.17
2018-10-17T19:27:57.270Z,15.23
2018-10-17T19:30:25.383Z,15.70
2018-10-17T19:32:53.672Z,19.47
2018-10-17T19:35:22.075Z,14.17
2018-10-17T19:37:50.218Z,16.23
2018-10-17T19:40:18.354Z,14.90
2018-10-17T19:42:46.446Z,15.80
2018-10-17T19:45:14.838Z,18.77
2018-10-17T19:47:43.098Z,19.37
2018-10-17T19:50:11.475Z,14.13
2018-10-17T19:52:39.781Z,14.37
2018-10-17T19:55:08.751Z,17.60
2018-10-17T19:57:36.877Z,16.53
2018-10-17T20:00:06.180Z,16.83
2018-10-17T20:02:34.292Z,15.73
2018-10-17T20:05:02.525Z,16.07
2018-10-17T20:07:30.774Z,32.73
2018-10-17T20:09:59.015Z,17.20
2018-10-17T20:12:27.121Z,16.70
2018-10-17T20:14:55.307Z,16.70
2018-10-17T20:17:23.568Z,17.93
2018-10-17T20:19:51.760Z,17.20
2018-10-17T20:22:19.817Z,18.97
2018-10-17T20:24:48.041Z,20.17
2018-10-17T20:27:16.261Z,17.20
2018-10-17T20:29:44.539Z,17.13
2018-10-17T20:32:12.810Z,18.13
2018-10-17T20:34:40.905Z,20.40
2018-10-17T20:37:09.154Z,18.33
2018-10-17T20:39:37.246Z,18.50
2018-10-17T20:42:05.651Z,18.33
2018-10-17T20:44:33.920Z,21.20
2018-10-17T20:47:02.138Z,21.67
2018-10-17T20:49:30.261Z,21.63
2018-10-17T20:51:58.408Z,21.40
2018-10-17T20:54:26.525Z,24.27
2018-10-17T20:56:54.731Z,22.13
2018-10-17T20:59:22.806Z,22.53
2018-10-17T21:01:50.997Z,19.30
2018-10-17T21:04:19.305Z,21.50
2018-10-17T21:06:47.394Z,23.53
2018-10-17T21:09:15.670Z,28.43
2018-10-17T21:11:43.880Z,19.53
2018-10-17T21:14:12.256Z,19.90
2018-10-17T21:16:41.521Z,19.63
2018-10-17T21:19:09.873Z,19.13
2018-10-17T21:21:37.945Z,20.10
2018-10-17T21:24:06.200Z,20.60
2018-10-17T21:26:34.328Z,21.23
2018-10-17T21:29:02.612Z,19.87
2018-10-17T21:31:30.857Z,21.10
2018-10-17T21:33:59.000Z,20.57
2018-10-17T21:36:27.157Z,20.93
2018-10-17T21:38:55.361Z,21.33
2018-10-17T21:41:23.446Z,23.20
2018-10-17T21:43:51.535Z,19.93
2018-10-17T21:46:20.245Z,22.40
2018-10-17T21:48:48.481Z,19.90
2018-10-17T21:51:16.677Z,21.03
2018-10-17T21:53:44.783Z,21.53
2018-10-17T21:56:13.131Z,21.57
2018-10-17T21:58:41.281Z,22.30
2018-10-17T22:01:09.360Z,20.73
2018-10-17T22:03:37.436Z,19.80
2018-10-17T22:06:05.502Z,20.67
2018-10-17T22:08:33.613Z,21.80
2018-10-17T22:11:01.759Z,21.33
2018-10-17T22:13:29.834Z,21.30
2018-10-17T22:15:57.917Z,20.10
2018-10-17T22:18:26.000Z,21.63
2018-10-17T22:20:54.084Z,20.80
2018-10-17T22:23:22.157Z,21.83
2018-10-17T22:25:50.241Z,20.87
2018-10-17T22:28:18.368Z,20.57
2018-10-17T22:30:46.445Z,21.20
2018-10-17T22:33:14.521Z,22.47
2018-10-17T22:35:42.577Z,20.60
2018-10-17T22:38:10.689Z,19.87
2018-10-17T22:40:38.979Z,20.20
2018-10-17T22:43:07.329Z,22.20
2018-10-17T22:45:35.422Z,21.40
2018-10-17T22:48:03.558Z,23.37
2018-10-17T22:50:31.748Z,22.37
2018-10-17T22:52:59.842Z,21.13
2018-10-17T22:55:27.916Z,20.97
2018-10-17T22:57:56.017Z,22.63
2018-10-17T23:00:24.077Z,22.20
2018-10-17T23:02:52.148Z,23.13
2018-10-17T23:05:20.264Z,19.60
2018-10-17T23:07:48.368Z,19.40
2018-10-17T23:10:16.548Z,21.03
2018-10-17T23:12:44.805Z,21.67
2018-10-17T23:15:14.533Z,21.30
2018-10-17T23:17:42.628Z,22.40
2018-10-17T23:20:11.177Z,21.93
2018-10-17T23:22:40.594Z,20.70
2018-10-17T23:25:10.178Z,24.60
2018-10-17T23:27:38.496Z,21.07
2018-10-17T23:30:07.369Z,21.93
2018-10-17T23:32:35.476Z,21.70
2018-10-17T23:35:03.607Z,22.70
2018-10-17T23:37:31.792Z,24.20
2018-10-17T23:39:59.981Z,20.27
2018-10-17T23:42:28.088Z,20.90
2018-10-17T23:44:56.328Z,21.07
2018-10-17T23:47:24.552Z,22.50
2018-10-17T23:49:52.716Z,22.23
2018-10-17T23:52:20.961Z,21.20
2018-10-17T23:54:49.145Z,21.20
2018-10-17T23:57:17.210Z,21.20
2018-10-17T23:59:45.287Z,20.70
